createdAt,value
2017-05-04T00:00:00.146Z,0
2017-05-04T00:00:41.037Z,0
2017-05-04T00:01:21.919Z,0
2017-05-04T00:02:02.853Z,0
2017-05-04T00:02:43.743Z,0
2017-05-04T00:03:24.624Z,0
2017-05-04T00:04:05.497Z,0
2017-05-04T00:04:46.394Z,0
2017-05-04T00:05:27.269Z,0
2017-05-04T00:06:08.147Z,0
2017-05-04T00:06:49.016Z,0
2017-05-04T00:07:29.897Z,0
2017-05-04T00:08:10.795Z,0
2017-05-04T00:08:51.688Z,0
2017-05-04T00:09:32.572Z,0
2017-05-04T00:10:13.476Z,0
2017-05-04T00:10:54.375Z,0
2017-05-04T00:11:35.265Z,0
2017-05-04T00:12:16.145Z,0
2017-05-04T00:12:57.030Z,0
2017-05-04T00:13:37.913Z,0
2017-05-04T00:14:18.806Z,0
2017-05-04T00:14:59.685Z,0
2017-05-04T00:15:40.572Z,0
2017-05-04T00:16:21.451Z,0
2017-05-04T00:17:02.314Z,0
2017-05-04T00:17:43.202Z,0
2017-05-04T00:18:24.093Z,0
2017-05-04T00:19:04.976Z,0
2017-05-04T00:19:45.875Z,0
2017-05-04T00:20:26.783Z,0
2017-05-04T00:21:07.649Z,0
2017-05-04T00:21:48.521Z,0
2017-05-04T00:24:08.497Z,0
2017-05-04T00:24:49.379Z,0
2017-05-04T00:25:30.269Z,0
2017-05-04T00:26:11.150Z,0
2017-05-04T00:26:52.028Z,0
2017-05-04T00:27:32.917Z,0
2017-05-04T00:28:13.801Z,0
2017-05-04T00:28:54.684Z,0
2017-05-04T00:29:35.566Z,0
2017-05-04T00:30:16.462Z,0
2017-05-04T00:30:57.334Z,0
2017-05-04T00:31:38.277Z,0
2017-05-04T00:32:19.171Z,0
2017-05-04T00:33:00.054Z,0
2017-05-04T00:33:40.933Z,0
2017-05-04T00:34:21.824Z,0
2017-05-04T00:35:02.719Z,0
2017-05-04T00:35:43.591Z,0
2017-05-04T00:36:24.469Z,0
2017-05-04T00:37:05.365Z,0
2017-05-04T00:37:46.243Z,0
2017-05-04T00:38:27.111Z,0
2017-05-04T00:39:07.983Z,0
2017-05-04T00:39:48.867Z,0
2017-05-04T00:40:29.750Z,0
2017-05-04T00:41:10.638Z,0
2017-05-04T00:41:51.525Z,0
2017-05-04T00:42:32.381Z,0
2017-05-04T00:43:13.255Z,0
2017-05-04T00:43:54.149Z,0
2017-05-04T00:44:35.025Z,0
2017-05-04T00:45:15.894Z,0
2017-05-04T00:45:56.762Z,0
2017-05-04T00:46:37.631Z,0
2017-05-04T00:47:18.503Z,0
2017-05-04T00:47:59.391Z,0
2017-05-04T00:48:40.273Z,0
2017-05-04T00:49:21.166Z,0
2017-05-04T00:50:02.043Z,0
2017-05-04T00:50:42.927Z,0
2017-05-04T00:51:23.810Z,0
2017-05-04T00:52:04.683Z,0
2017-05-04T00:52:45.577Z,0
2017-05-04T00:53:26.460Z,0
2017-05-04T00:54:07.339Z,0
2017-05-04T00:54:48.236Z,0
2017-05-04T00:55:29.135Z,0
2017-05-04T00:56:10.025Z,0
2017-05-04T00:56:50.912Z,0
2017-05-04T00:57:31.828Z,0
2017-05-04T00:58:12.718Z,0
2017-05-04T00:58:53.612Z,0
2017-05-04T00:59:34.521Z,0
2017-05-04T01:00:15.383Z,0
2017-05-04T01:00:56.257Z,0
2017-05-04T01:01:37.134Z,0
2017-05-04T01:02:18.018Z,0
2017-05-04T01:02:59.026Z,0
2017-05-04T01:03:39.891Z,0
2017-05-04T01:04:20.771Z,0
2017-05-04T01:05:01.657Z,0
2017-05-04T01:05:42.536Z,0
2017-05-04T01:06:23.402Z,0
2017-05-04T01:07:04.263Z,0
2017-05-04T01:07:45.123Z,0
2017-05-04T01:08:26.001Z,0
2017-05-04T01:09:06.888Z,0
2017-05-04T01:09:47.784Z,0
2017-05-04T01:10:28.651Z,0
2017-05-04T01:11:09.538Z,0
2017-05-04T01:11:50.433Z,0
2017-05-04T01:12:31.322Z,0
2017-05-04T01:13:12.196Z,0
2017-05-04T01:13:53.067Z,0
2017-05-04T01:14:33.944Z,0
2017-05-04T01:15:14.835Z,0
2017-05-04T01:15:55.720Z,0
2017-05-04T01:16:36.603Z,0
2017-05-04T01:17:17.473Z,0
2017-05-04T01:17:58.338Z,0
2017-05-04T01:18:39.243Z,0
2017-05-04T01:19:20.103Z,0
2017-05-04T01:20:00.983Z,0
2017-05-04T01:20:41.862Z,0
2017-05-04T01:21:22.729Z,0
2017-05-04T01:22:03.615Z,0
2017-05-04T01:22:44.492Z,0
2017-05-04T01:23:25.369Z,0
2017-05-04T01:24:06.225Z,0
2017-05-04T01:24:47.087Z,0
2017-05-04T01:25:27.994Z,0
2017-05-04T01:26:08.882Z,0
2017-05-04T01:26:49.725Z,0
2017-05-04T01:27:30.597Z,0
2017-05-04T01:28:11.479Z,0
2017-05-04T01:28:52.343Z,0
2017-05-04T01:29:33.227Z,0
2017-05-04T01:30:14.101Z,0
2017-05-04T01:30:54.972Z,0
2017-05-04T01:31:35.851Z,0
2017-05-04T01:32:16.716Z,0
2017-05-04T01:32:57.590Z,0
2017-05-04T01:33:38.449Z,0
2017-05-04T01:34:19.305Z,0
2017-05-04T01:35:00.191Z,0
2017-05-04T01:35:41.037Z,0
2017-05-04T01:36:21.895Z,0
2017-05-04T01:37:02.766Z,0
2017-05-04T01:37:43.673Z,0
2017-05-04T01:38:24.500Z,0
2017-05-04T01:39:05.367Z,0
2017-05-04T01:39:46.232Z,0
2017-05-04T01:40:27.102Z,0
2017-05-04T01:41:07.949Z,0
2017-05-04T01:41:48.826Z,0
2017-05-04T01:42:29.716Z,0
2017-05-04T01:43:10.618Z,0
2017-05-04T01:43:51.475Z,0
2017-05-04T01:44:32.364Z,0
2017-05-04T01:45:13.241Z,0
2017-05-04T01:45:54.129Z,0
2017-05-04T01:46:35.007Z,0
2017-05-04T01:47:15.887Z,0
2017-05-04T01:47:56.773Z,0
2017-05-04T01:48:37.657Z,0
2017-05-04T01:49:18.565Z,0
2017-05-04T01:49:59.440Z,0
2017-05-04T01:50:40.292Z,0
2017-05-04T01:51:21.178Z,0
2017-05-04T01:52:02.083Z,0
2017-05-04T01:52:42.956Z,0
2017-05-04T01:53:23.824Z,0
2017-05-04T01:54:04.696Z,0
2017-05-04T01:54:45.570Z,0
2017-05-04T01:55:26.425Z,0
2017-05-04T01:56:07.302Z,0
2017-05-04T01:56:48.163Z,0
2017-05-04T01:57:29.051Z,0
2017-05-04T01:58:09.930Z,0
2017-05-04T01:58:50.807Z,0
2017-05-04T01:59:31.692Z,0
2017-05-04T02:00:12.577Z,0
2017-05-04T02:00:53.459Z,0
2017-05-04T02:01:34.336Z,0
2017-05-04T02:02:15.211Z,0
2017-05-04T02:02:56.094Z,0
2017-05-04T02:03:36.982Z,0
2017-05-04T02:04:17.886Z,0
2017-05-04T02:04:58.765Z,0
2017-05-04T02:05:39.648Z,0
2017-05-04T02:06:20.533Z,0
2017-05-04T02:07:01.414Z,0
2017-05-04T02:07:42.289Z,0
2017-05-04T02:08:23.167Z,0
2017-05-04T02:09:04.041Z,0
2017-05-04T02:09:44.922Z,0
2017-05-04T02:10:25.810Z,0
2017-05-04T02:11:06.699Z,0
2017-05-04T02:11:47.583Z,0
2017-05-04T02:12:28.466Z,0
2017-05-04T02:13:09.362Z,0
2017-05-04T02:13:50.238Z,0
2017-05-04T02:14:31.115Z,0
2017-05-04T02:15:12.010Z,0
2017-05-04T02:15:52.895Z,0
2017-05-04T02:16:33.786Z,0
2017-05-04T02:17:14.664Z,0
2017-05-04T02:17:55.550Z,0
2017-05-04T02:18:36.436Z,0
2017-05-04T02:19:17.324Z,0
2017-05-04T02:19:58.199Z,0
2017-05-04T02:20:39.071Z,0
2017-05-04T02:21:19.948Z,0
2017-05-04T02:22:00.824Z,0
2017-05-04T02:22:41.719Z,0
2017-05-04T02:23:22.599Z,0
2017-05-04T02:24:03.487Z,0
2017-05-04T02:24:44.362Z,0
2017-05-04T02:25:25.251Z,0
2017-05-04T02:26:06.126Z,0
2017-05-04T02:26:47.013Z,0
2017-05-04T02:27:27.898Z,0
2017-05-04T02:28:08.780Z,0
2017-05-04T02:28:49.661Z,0
2017-05-04T02:29:30.531Z,0
2017-05-04T02:30:11.400Z,0
2017-05-04T02:30:52.288Z,0
2017-05-04T02:31:33.180Z,0
2017-05-04T02:32:14.053Z,0
2017-05-04T02:32:54.935Z,0
2017-05-04T02:33:35.821Z,0
2017-05-04T02:34:16.708Z,0
2017-05-04T02:34:57.582Z,0
2017-05-04T02:35:38.453Z,0
2017-05-04T02:36:19.337Z,0
2017-05-04T02:37:00.217Z,0
2017-05-04T02:37:41.104Z,0
2017-05-04T02:38:21.977Z,0
2017-05-04T02:39:02.863Z,0
2017-05-04T02:39:43.749Z,0
2017-05-04T02:40:24.636Z,0
2017-05-04T02:41:05.511Z,0
2017-05-04T02:41:46.395Z,0
2017-05-04T02:42:27.305Z,0
2017-05-04T02:43:08.180Z,0
2017-05-04T02:43:49.072Z,0
2017-05-04T02:44:29.956Z,0
2017-05-04T02:45:10.901Z,0
2017-05-04T02:45:51.771Z,0
2017-05-04T02:46:32.659Z,0
2017-05-04T02:47:13.539Z,0
2017-05-04T02:47:54.419Z,0
2017-05-04T02:48:35.305Z,0
2017-05-04T02:49:16.197Z,0
2017-05-04T02:49:57.073Z,0
2017-05-04T02:50:37.952Z,0
2017-05-04T02:51:18.857Z,0
2017-05-04T02:51:59.721Z,0
2017-05-04T02:52:40.598Z,0
2017-05-04T02:53:21.475Z,0
2017-05-04T02:54:02.364Z,0
2017-05-04T02:54:43.232Z,0
2017-05-04T02:55:24.115Z,0
2017-05-04T02:56:04.987Z,0
2017-05-04T02:56:45.864Z,0
2017-05-04T02:57:26.741Z,0
2017-05-04T02:58:07.646Z,0
2017-05-04T02:58:48.504Z,0
2017-05-04T02:59:29.380Z,0
2017-05-04T03:00:10.248Z,0
2017-05-04T03:00:51.112Z,0
2017-05-04T03:01:31.982Z,0
2017-05-04T03:02:12.879Z,0
2017-05-04T03:02:53.756Z,0
2017-05-04T03:03:34.647Z,0
2017-05-04T03:04:15.522Z,0
2017-05-04T03:04:56.424Z,0
2017-05-04T03:05:37.308Z,0
2017-05-04T03:06:18.198Z,0
2017-05-04T03:06:59.081Z,0
2017-05-04T03:07:39.963Z,0
2017-05-04T03:08:20.846Z,0
2017-05-04T03:09:01.735Z,0
2017-05-04T03:09:42.626Z,0
2017-05-04T03:10:23.511Z,0
2017-05-04T03:11:04.377Z,0
2017-05-04T03:11:45.238Z,0
2017-05-04T03:12:26.114Z,0
2017-05-04T03:13:06.990Z,0
2017-05-04T03:13:47.876Z,0
2017-05-04T03:14:28.768Z,0
2017-05-04T03:15:09.623Z,0
2017-05-04T03:15:50.491Z,0
2017-05-04T03:16:31.400Z,0
2017-05-04T03:17:12.282Z,0
2017-05-04T03:17:53.142Z,0
2017-05-04T03:18:34.009Z,0
2017-05-04T03:19:14.888Z,0
2017-05-04T03:19:55.745Z,0
2017-05-04T03:20:36.600Z,0
2017-05-04T03:21:17.461Z,0
2017-05-04T03:21:58.353Z,0
2017-05-04T03:22:39.256Z,0
2017-05-04T03:23:20.132Z,0
2017-05-04T03:24:00.996Z,0
2017-05-04T03:24:41.859Z,0
2017-05-04T03:25:22.776Z,0
2017-05-04T03:26:03.654Z,0
2017-05-04T03:26:44.535Z,0
2017-05-04T03:27:25.404Z,0
2017-05-04T03:28:06.297Z,0
2017-05-04T03:28:47.187Z,0
2017-05-04T03:29:28.051Z,0
2017-05-04T03:30:08.927Z,0
2017-05-04T03:30:49.815Z,0
2017-05-04T03:31:30.704Z,0
2017-05-04T03:32:11.606Z,0
2017-05-04T03:32:52.476Z,0
2017-05-04T03:33:33.369Z,0
2017-05-04T03:34:14.260Z,0
2017-05-04T03:34:55.144Z,0
2017-05-04T03:35:36.039Z,0
2017-05-04T03:36:16.927Z,0
2017-05-04T03:36:57.810Z,0
2017-05-04T03:37:38.706Z,0
2017-05-04T03:38:19.611Z,0
2017-05-04T03:39:00.478Z,0
2017-05-04T03:39:41.344Z,0
2017-05-04T03:40:22.242Z,0
2017-05-04T03:41:03.129Z,0
2017-05-04T03:41:43.998Z,0
2017-05-04T03:42:24.872Z,0
2017-05-04T03:43:05.754Z,0
2017-05-04T03:43:46.657Z,0
2017-05-04T03:44:27.529Z,0
2017-05-04T03:45:08.411Z,0
2017-05-04T03:45:49.295Z,0
2017-05-04T03:46:30.191Z,0
2017-05-04T03:47:11.073Z,0
2017-05-04T03:47:51.946Z,0
2017-05-04T03:48:32.842Z,0
2017-05-04T03:49:13.729Z,0
2017-05-04T03:49:54.612Z,0
2017-05-04T03:50:35.489Z,0
2017-05-04T03:51:16.363Z,0
2017-05-04T03:51:57.261Z,0
2017-05-04T03:52:38.154Z,0
2017-05-04T03:53:19.040Z,0
2017-05-04T03:53:59.916Z,0
2017-05-04T03:54:40.806Z,0
2017-05-04T03:55:21.703Z,0
2017-05-04T03:56:02.594Z,0
2017-05-04T03:56:43.479Z,0
2017-05-04T03:57:24.410Z,0
2017-05-04T03:58:05.287Z,0
2017-05-04T03:58:46.169Z,5
2017-05-04T03:59:27.043Z,5
2017-05-04T04:00:07.934Z,5
2017-05-04T04:00:48.827Z,5
2017-05-04T04:01:29.690Z,5
2017-05-04T04:02:10.575Z,5
2017-05-04T04:02:51.460Z,5
2017-05-04T04:03:32.352Z,5
2017-05-04T04:04:13.221Z,5
2017-05-04T04:04:54.127Z,5
2017-05-04T04:07:09.221Z,5
2017-05-04T04:07:50.098Z,5
2017-05-04T04:08:33.610Z,5
2017-05-04T04:09:14.489Z,5
2017-05-04T04:09:55.353Z,10
2017-05-04T04:10:36.234Z,10
2017-05-04T04:11:17.117Z,10
2017-05-04T04:11:57.990Z,10
2017-05-04T04:12:38.885Z,10
2017-05-04T04:13:19.751Z,10
2017-05-04T04:15:53.981Z,15
2017-05-04T04:16:49.707Z,15
2017-05-04T04:17:30.591Z,15
2017-05-04T04:19:44.319Z,15
2017-05-04T04:20:25.195Z,15
2017-05-04T04:21:06.069Z,15
2017-05-04T04:21:46.932Z,15
2017-05-04T04:22:27.817Z,15
2017-05-04T04:23:08.683Z,20
2017-05-04T04:23:49.564Z,20
2017-05-04T04:24:30.451Z,20
2017-05-04T04:26:59.530Z,25
2017-05-04T04:27:40.411Z,25
2017-05-04T04:28:21.297Z,25
2017-05-04T04:29:02.177Z,30
2017-05-04T04:29:43.058Z,30
2017-05-04T04:30:23.952Z,30
2017-05-04T04:31:04.829Z,30
2017-05-04T04:31:45.716Z,30
2017-05-04T04:32:26.615Z,30
2017-05-04T04:33:07.473Z,30
2017-05-04T04:33:48.342Z,30
2017-05-04T04:34:29.209Z,30
2017-05-04T04:35:10.080Z,30
2017-05-04T04:35:50.953Z,35
2017-05-04T04:36:31.838Z,35
2017-05-04T04:37:12.720Z,35
2017-05-04T04:37:53.605Z,35
2017-05-04T04:38:34.441Z,35
2017-05-04T04:39:15.323Z,35
2017-05-04T04:39:56.210Z,35
2017-05-04T04:40:37.092Z,35
2017-05-04T04:41:17.970Z,35
2017-05-04T04:41:58.842Z,35
2017-05-04T04:42:39.695Z,35
2017-05-04T04:43:20.557Z,35
2017-05-04T04:44:01.427Z,35
2017-05-04T04:44:42.313Z,40
2017-05-04T04:45:23.212Z,40
2017-05-04T04:46:04.088Z,40
2017-05-04T04:46:44.953Z,35
2017-05-04T04:47:25.819Z,35
2017-05-04T04:48:06.689Z,30
2017-05-04T04:48:47.565Z,25
2017-05-04T04:49:28.445Z,25
2017-05-04T04:50:09.325Z,25
2017-05-04T04:50:50.193Z,25
2017-05-04T04:51:31.091Z,25
2017-05-04T04:52:11.975Z,25
2017-05-04T04:52:52.845Z,25
2017-05-04T04:53:33.721Z,25
2017-05-04T04:54:14.577Z,30
2017-05-04T04:54:55.469Z,30
2017-05-04T04:55:36.356Z,30
2017-05-04T04:56:17.231Z,30
2017-05-04T04:56:58.109Z,30
2017-05-04T04:57:38.993Z,30
2017-05-04T04:58:19.879Z,25
2017-05-04T04:59:00.766Z,25
2017-05-04T04:59:41.648Z,25
2017-05-04T05:00:22.507Z,25
2017-05-04T05:01:03.383Z,25
2017-05-04T05:01:44.265Z,25
2017-05-04T05:02:25.164Z,30
2017-05-04T05:03:06.066Z,30
2017-05-04T05:03:46.967Z,30
2017-05-04T05:04:27.846Z,30
2017-05-04T05:05:08.713Z,30
2017-05-04T05:05:49.602Z,30
2017-05-04T05:06:30.498Z,35
2017-05-04T05:07:11.375Z,35
2017-05-04T05:07:52.269Z,35
2017-05-04T05:08:33.150Z,35
2017-05-04T05:09:14.035Z,30
2017-05-04T05:09:54.904Z,30
2017-05-04T05:10:50.399Z,30
2017-05-04T05:11:31.276Z,30
2017-05-04T05:12:12.159Z,30
2017-05-04T05:14:54.453Z,35
2017-05-04T05:15:35.327Z,35
2017-05-04T05:16:23.076Z,35
2017-05-04T05:17:03.961Z,40
2017-05-04T05:17:44.861Z,40
2017-05-04T05:20:14.078Z,35
2017-05-04T05:21:09.940Z,40
2017-05-04T05:21:50.820Z,40
2017-05-04T05:24:27.882Z,50
2017-05-04T05:25:08.740Z,55
2017-05-04T05:25:49.609Z,60
2017-05-04T05:26:30.487Z,60
2017-05-04T05:27:11.364Z,65
2017-05-04T05:27:52.245Z,60
2017-05-04T05:28:33.124Z,60
2017-05-04T05:31:02.228Z,45
2017-05-04T05:33:42.606Z,45
2017-05-04T05:34:23.495Z,45
2017-05-04T05:35:04.407Z,50
2017-05-04T05:35:59.977Z,55
2017-05-04T05:36:40.850Z,50
2017-05-04T05:37:21.725Z,50
2017-05-04T05:38:02.601Z,50
2017-05-04T05:38:58.461Z,45
2017-05-04T05:39:39.331Z,45
2017-05-04T05:41:58.225Z,45
2017-05-04T05:42:39.113Z,40
2017-05-04T05:43:20.007Z,40
2017-05-04T05:44:00.876Z,40
2017-05-04T05:44:41.744Z,40
2017-05-04T05:45:22.632Z,40
2017-05-04T05:47:56.869Z,30
2017-05-04T05:48:37.736Z,30
2017-05-04T05:49:18.625Z,30
2017-05-04T05:50:02.073Z,30
2017-05-04T05:50:42.949Z,30
2017-05-04T05:51:30.726Z,30
2017-05-04T05:52:11.608Z,30
2017-05-04T05:52:52.483Z,35
2017-05-04T05:53:33.380Z,35
2017-05-04T05:54:14.230Z,40
2017-05-04T05:54:55.112Z,45
2017-05-04T05:56:54.042Z,50
2017-05-04T05:57:34.878Z,55
2017-05-04T05:58:15.744Z,55
2017-05-04T05:58:56.616Z,55
2017-05-04T05:59:37.487Z,55
2017-05-04T06:00:18.351Z,60
2017-05-04T06:00:59.285Z,65
2017-05-04T06:01:40.188Z,70
2017-05-04T06:02:21.040Z,75
2017-05-04T06:06:23.967Z,70
2017-05-04T06:08:48.204Z,70
2017-05-04T06:09:29.075Z,70
2017-05-04T06:11:42.807Z,70
2017-05-04T06:12:23.707Z,70
2017-05-04T06:13:11.507Z,70
2017-05-04T06:13:52.368Z,75
2017-05-04T06:18:20.017Z,55
2017-05-04T06:20:33.755Z,65
2017-05-04T06:21:14.631Z,70
2017-05-04T06:25:48.360Z,75
2017-05-04T06:26:29.220Z,70
2017-05-04T06:27:10.217Z,65
2017-05-04T06:27:51.059Z,60
2017-05-04T06:28:31.986Z,60
2017-05-04T06:32:28.851Z,60
2017-05-04T06:33:09.733Z,65
2017-05-04T06:36:05.521Z,70
2017-05-04T06:36:46.410Z,70
2017-05-04T06:37:27.299Z,70
2017-05-04T06:38:08.193Z,65
2017-05-04T06:40:21.927Z,70
2017-05-04T06:41:02.801Z,75
2017-05-04T06:41:50.410Z,75
2017-05-04T06:42:31.327Z,80
2017-05-04T06:43:12.222Z,80
2017-05-04T06:43:53.085Z,80
2017-05-04T06:44:48.786Z,85
2017-05-04T06:45:29.667Z,85
2017-05-04T06:46:10.552Z,90
2017-05-04T06:46:51.440Z,90
2017-05-04T06:47:32.323Z,95
2017-05-04T06:48:13.200Z,100
2017-05-04T06:48:54.077Z,105
2017-05-04T06:49:34.964Z,115
2017-05-04T06:50:15.840Z,120
2017-05-04T06:50:56.715Z,115
2017-05-04T06:51:37.596Z,115
2017-05-04T06:52:18.463Z,115
2017-05-04T06:52:59.323Z,115
2017-05-04T06:53:40.198Z,120
2017-05-04T06:54:21.069Z,125
2017-05-04T06:55:01.946Z,130
2017-05-04T06:55:42.833Z,130
2017-05-04T06:56:23.760Z,135
2017-05-04T06:57:04.644Z,130
2017-05-04T06:57:45.522Z,125
2017-05-04T06:58:26.403Z,120
2017-05-04T06:59:07.284Z,115
2017-05-04T06:59:48.146Z,115
2017-05-04T07:00:29.023Z,115
2017-05-04T07:01:09.904Z,115
2017-05-04T07:01:50.810Z,120
2017-05-04T07:02:31.687Z,120
2017-05-04T07:03:12.576Z,120
2017-05-04T07:03:53.434Z,120
2017-05-04T07:04:34.304Z,125
2017-05-04T07:05:15.188Z,115
2017-05-04T07:05:56.068Z,115
2017-05-04T07:06:36.949Z,115
2017-05-04T07:07:17.843Z,115
2017-05-04T07:07:58.715Z,115
2017-05-04T07:08:39.579Z,110
2017-05-04T07:09:20.457Z,110
2017-05-04T07:10:01.331Z,110
2017-05-04T07:10:42.200Z,110
2017-05-04T07:11:23.108Z,115
2017-05-04T07:12:03.984Z,115
2017-05-04T07:12:44.873Z,115
2017-05-04T07:13:25.780Z,115
2017-05-04T07:14:06.740Z,115
2017-05-04T07:14:47.586Z,115
2017-05-04T07:15:28.472Z,115
2017-05-04T07:16:09.356Z,110
2017-05-04T07:16:50.287Z,110
2017-05-04T07:17:31.251Z,110
2017-05-04T07:18:12.120Z,110
2017-05-04T07:18:53.029Z,115
2017-05-04T07:19:33.903Z,115
2017-05-04T07:20:14.775Z,125
2017-05-04T07:20:55.649Z,130
2017-05-04T07:21:36.516Z,135
2017-05-04T07:22:17.433Z,130
2017-05-04T07:22:59.122Z,125
2017-05-04T07:23:40.004Z,115
2017-05-04T07:24:20.968Z,110
2017-05-04T07:25:01.802Z,105
2017-05-04T07:25:42.708Z,105
2017-05-04T07:26:23.639Z,110
2017-05-04T07:27:04.549Z,105
2017-05-04T07:27:45.462Z,100
2017-05-04T07:28:26.314Z,90
2017-05-04T07:29:07.225Z,85
2017-05-04T07:29:48.112Z,80
2017-05-04T07:30:29.017Z,75
2017-05-04T07:31:09.892Z,75
2017-05-04T07:31:50.768Z,70
2017-05-04T07:32:31.652Z,70
2017-05-04T07:33:12.528Z,75
2017-05-04T07:33:53.413Z,75
2017-05-04T07:34:34.332Z,80
2017-05-04T07:35:15.198Z,80
2017-05-04T07:35:56.112Z,85
2017-05-04T07:36:36.992Z,85
2017-05-04T07:37:17.877Z,85
2017-05-04T07:37:58.774Z,85
2017-05-04T07:38:39.660Z,80
2017-05-04T07:39:20.526Z,80
2017-05-04T07:40:02.373Z,80
2017-05-04T07:40:43.350Z,75
2017-05-04T07:41:24.147Z,70
2017-05-04T07:42:05.017Z,75
2017-05-04T07:42:45.889Z,80
2017-05-04T07:43:26.773Z,85
2017-05-04T07:44:07.676Z,80
2017-05-04T07:44:48.610Z,80
2017-05-04T07:45:29.461Z,80
2017-05-04T07:46:10.338Z,85
2017-05-04T07:46:51.219Z,85
2017-05-04T07:47:32.097Z,90
2017-05-04T07:48:12.959Z,90
2017-05-04T07:48:53.837Z,90
2017-05-04T07:49:34.730Z,90
2017-05-04T07:50:15.668Z,95
2017-05-04T07:50:56.605Z,95
2017-05-04T07:51:37.481Z,95
2017-05-04T07:52:18.371Z,95
2017-05-04T07:52:59.803Z,95
2017-05-04T07:53:40.669Z,100
2017-05-04T07:54:21.553Z,105
2017-05-04T07:55:02.431Z,110
2017-05-04T07:55:43.319Z,110
2017-05-04T07:56:24.195Z,105
2017-05-04T07:57:05.142Z,105
2017-05-04T07:57:46.667Z,100
2017-05-04T07:58:27.567Z,95
2017-05-04T07:59:08.463Z,90
2017-05-04T07:59:49.356Z,90
2017-05-04T08:00:30.235Z,85
2017-05-04T08:01:11.129Z,85
2017-05-04T08:01:51.996Z,85
2017-05-04T08:02:33.641Z,85
2017-05-04T08:03:15.135Z,90
2017-05-04T08:03:56.018Z,90
2017-05-04T08:04:36.901Z,95
2017-05-04T08:05:17.802Z,95
2017-05-04T08:05:58.699Z,100
2017-05-04T08:06:39.598Z,105
2017-05-04T08:07:20.461Z,105
2017-05-04T08:08:01.332Z,100
2017-05-04T08:08:42.218Z,95
2017-05-04T08:09:23.038Z,90
2017-05-04T08:10:03.915Z,95
2017-05-04T08:10:44.785Z,95
2017-05-04T08:11:25.674Z,100
2017-05-04T08:12:06.569Z,105
2017-05-04T08:12:47.418Z,100
2017-05-04T08:13:28.285Z,95
2017-05-04T08:14:09.156Z,95
2017-05-04T08:14:50.048Z,95
2017-05-04T08:15:30.943Z,95
2017-05-04T08:16:11.821Z,100
2017-05-04T08:16:52.685Z,100
2017-05-04T08:17:33.574Z,95
2017-05-04T08:18:14.441Z,100
2017-05-04T08:18:55.328Z,105
2017-05-04T08:19:36.200Z,110
2017-05-04T08:20:17.074Z,110
2017-05-04T08:20:57.934Z,115
2017-05-04T08:21:38.784Z,110
2017-05-04T08:22:19.647Z,110
2017-05-04T08:23:00.524Z,105
2017-05-04T08:23:41.373Z,100
2017-05-04T08:24:22.255Z,100
2017-05-04T08:25:03.187Z,100
2017-05-04T08:25:44.059Z,100
2017-05-04T08:26:24.936Z,100
2017-05-04T08:27:05.831Z,100
2017-05-04T08:27:46.716Z,105
2017-05-04T08:28:27.571Z,110
2017-05-04T08:29:08.491Z,115
2017-05-04T08:29:49.371Z,125
2017-05-04T08:30:30.251Z,130
2017-05-04T08:31:11.109Z,125
2017-05-04T08:31:51.981Z,120
2017-05-04T08:32:32.860Z,125
2017-05-04T08:33:13.744Z,120
2017-05-04T08:33:54.618Z,120
2017-05-04T08:34:35.498Z,115
2017-05-04T08:35:16.373Z,105
2017-05-04T08:35:57.224Z,105
2017-05-04T08:36:38.108Z,115
2017-05-04T08:37:19.019Z,125
2017-05-04T08:37:59.892Z,125
2017-05-04T08:38:40.752Z,125
2017-05-04T08:39:21.626Z,125
2017-05-04T08:40:02.504Z,130
2017-05-04T08:40:43.384Z,130
2017-05-04T08:41:24.263Z,130
2017-05-04T08:42:05.142Z,115
2017-05-04T08:42:46.016Z,120
2017-05-04T08:43:26.890Z,140
2017-05-04T08:44:07.779Z,145
2017-05-04T08:44:48.630Z,145
2017-05-04T08:45:36.423Z,140
2017-05-04T08:46:17.306Z,135
2017-05-04T08:46:58.218Z,135
2017-05-04T08:47:39.096Z,140
2017-05-04T08:48:19.992Z,140
2017-05-04T08:49:00.877Z,130
2017-05-04T08:49:41.806Z,125
2017-05-04T08:50:22.690Z,130
2017-05-04T08:51:03.562Z,140
2017-05-04T08:51:44.449Z,145
2017-05-04T08:52:25.334Z,150
2017-05-04T08:53:06.236Z,160
2017-05-04T08:53:47.102Z,170
2017-05-04T08:54:27.990Z,185
2017-05-04T08:55:09.441Z,185
2017-05-04T08:55:50.336Z,180
2017-05-04T08:56:31.220Z,165
2017-05-04T08:57:12.121Z,150
2017-05-04T08:57:53.016Z,145
2017-05-04T08:58:33.902Z,145
2017-05-04T08:59:14.769Z,155
2017-05-04T08:59:55.646Z,160
2017-05-04T09:00:36.502Z,155
2017-05-04T09:01:17.384Z,150
2017-05-04T09:01:58.253Z,145
2017-05-04T09:02:39.125Z,150
2017-05-04T09:03:20.015Z,165
2017-05-04T09:04:00.893Z,180
2017-05-04T09:04:41.778Z,200
2017-05-04T09:05:23.217Z,205
2017-05-04T09:06:04.100Z,195
2017-05-04T09:06:44.979Z,175
2017-05-04T09:07:28.673Z,160
2017-05-04T09:08:09.608Z,150
2017-05-04T09:08:51.154Z,155
2017-05-04T09:09:32.035Z,165
2017-05-04T09:10:12.901Z,160
2017-05-04T09:10:53.791Z,160
2017-05-04T09:11:34.657Z,160
2017-05-04T09:12:15.590Z,155
2017-05-04T09:12:56.449Z,165
2017-05-04T09:13:37.321Z,165
2017-05-04T09:14:18.205Z,175
2017-05-04T09:14:59.103Z,170
2017-05-04T09:15:39.979Z,180
2017-05-04T09:16:20.883Z,185
2017-05-04T09:17:01.801Z,190
2017-05-04T09:17:42.723Z,185
2017-05-04T09:18:23.609Z,200
2017-05-04T09:19:04.476Z,205
2017-05-04T09:19:45.382Z,200
2017-05-04T09:20:26.265Z,200
2017-05-04T09:21:07.660Z,215
2017-05-04T09:21:48.567Z,235
2017-05-04T09:22:29.441Z,230
2017-05-04T09:23:10.346Z,235
2017-05-04T09:23:51.221Z,220
2017-05-04T09:24:32.094Z,205
2017-05-04T09:25:12.967Z,180
2017-05-04T09:25:53.836Z,155
2017-05-04T09:26:34.709Z,165
2017-05-04T09:27:15.586Z,200
2017-05-04T09:27:56.504Z,200
2017-05-04T09:28:37.369Z,165
2017-05-04T09:29:18.279Z,125
2017-05-04T09:29:59.136Z,120
2017-05-04T09:30:40.017Z,130
2017-05-04T09:31:20.899Z,150
2017-05-04T09:32:01.785Z,175
2017-05-04T09:34:30.904Z,185
2017-05-04T09:35:11.821Z,225
2017-05-04T09:35:54.335Z,275
2017-05-04T09:36:35.215Z,260
2017-05-04T09:37:16.124Z,210
2017-05-04T09:37:57.009Z,170
2017-05-04T09:38:37.891Z,155
2017-05-04T09:39:18.813Z,135
2017-05-04T09:39:59.711Z,115
2017-05-04T09:40:40.577Z,130
2017-05-04T09:43:09.691Z,180
2017-05-04T09:43:50.566Z,175
2017-05-04T09:46:19.724Z,145
2017-05-04T09:47:00.611Z,150
2017-05-04T09:47:41.494Z,170
2017-05-04T09:48:25.828Z,170
2017-05-04T09:49:06.775Z,160
2017-05-04T09:49:47.648Z,165
2017-05-04T09:54:20.443Z,155
2017-05-04T09:55:16.243Z,145
2017-05-04T09:55:57.109Z,165
2017-05-04T09:56:37.994Z,180
2017-05-04T09:58:56.918Z,170
2017-05-04T09:59:37.821Z,165
2017-05-04T10:00:18.667Z,165
2017-05-04T10:00:59.540Z,175
2017-05-04T10:01:40.409Z,175
2017-05-04T10:02:21.288Z,180
2017-05-04T10:09:44.491Z,155
2017-05-04T10:10:25.346Z,145
2017-05-04T10:11:06.258Z,130
2017-05-04T10:11:47.152Z,115
2017-05-04T10:12:28.029Z,100
2017-05-04T10:13:08.931Z,95
2017-05-04T10:13:49.807Z,110
2017-05-04T10:14:30.694Z,115
2017-05-04T10:15:11.572Z,130
2017-05-04T10:15:52.453Z,135
2017-05-04T10:16:33.358Z,125
2017-05-04T10:17:14.207Z,125
2017-05-04T10:17:55.778Z,130
2017-05-04T10:18:36.665Z,125
2017-05-04T10:19:17.547Z,120
2017-05-04T10:19:58.430Z,120
2017-05-04T10:20:39.317Z,120
2017-05-04T10:21:20.205Z,115
2017-05-04T10:22:01.654Z,120
2017-05-04T10:22:42.543Z,130
2017-05-04T10:23:23.422Z,140
2017-05-04T10:24:05.287Z,145
2017-05-04T10:24:46.196Z,135
2017-05-04T10:25:27.084Z,120
2017-05-04T10:26:07.961Z,125
2017-05-04T10:26:48.842Z,120
2017-05-04T10:27:29.723Z,120
2017-05-04T10:28:10.614Z,110
2017-05-04T10:28:51.536Z,110
2017-05-04T10:29:32.426Z,120
2017-05-04T10:30:13.299Z,125
2017-05-04T10:30:54.174Z,115
2017-05-04T10:31:35.048Z,125
2017-05-04T10:32:15.933Z,160
2017-05-04T10:32:56.820Z,150
2017-05-04T10:33:37.702Z,150
2017-05-04T10:34:18.556Z,175
2017-05-04T10:34:59.416Z,180
2017-05-04T10:35:40.291Z,170
2017-05-04T10:36:21.156Z,180
2017-05-04T10:37:02.053Z,185
2017-05-04T10:37:42.932Z,190
2017-05-04T10:38:23.794Z,195
2017-05-04T10:39:04.661Z,190
2017-05-04T10:39:45.524Z,185
2017-05-04T10:40:26.388Z,185
2017-05-04T10:41:07.245Z,195
2017-05-04T10:41:48.121Z,205
2017-05-04T10:42:29.005Z,210
2017-05-04T10:43:09.885Z,180
2017-05-04T10:43:50.768Z,150
2017-05-04T10:44:31.662Z,165
2017-05-04T10:45:12.521Z,195
2017-05-04T10:45:53.399Z,180
2017-05-04T10:46:34.289Z,165
2017-05-04T10:47:15.164Z,150
2017-05-04T10:47:56.032Z,135
2017-05-04T10:48:36.939Z,135
2017-05-04T10:49:17.831Z,145
2017-05-04T10:49:58.697Z,135
2017-05-04T10:50:39.566Z,125